sensor_id;sensor_type;location;lat;lon;timestamp;temperature;humidity
17385;DHT22;8810;48.680;8.894;2022-10-03T00:01:33;9.60;99.90
17385;DHT22;8810;48.680;8.894;2022-10-03T00:04:13;9.50;99.90
17385;DHT22;8810;48.680;8.894;2022-10-03T00:06:50;9.50;99.90
17385;DHT22;8810;48.680;8.894;2022-10-03T00:09:32;9.40;99.90
17385;DHT22;8810;48.680;8.894;2022-10-03T00:12:10;9.30;99.90
17385;DHT22;8810;48.680;8.894;2022-10-03T00:14:47;9.20;99.90
17385;DHT22;8810;48.680;8.894;2022-10-03T00:17:25;9.20;99.90
17385;DHT22;8810;48.680;8.894;2022-10-03T00:20:00;9.20;99.90
17385;DHT22;8810;48.680;8.894;2022-10-03T00:22:36;9.10;99.90
17385;DHT22;8810;48.680;8.894;2022-10-03T00:25:19;9.00;99.90
17385;DHT22;8810;48.680;8.894;2022-10-03T00:28:01;9.00;99.90
17385;DHT22;8810;48.680;8.894;2022-10-03T00:30:54;9.00;99.90
17385;DHT22;8810;48.680;8.894;2022-10-03T00:33:28;8.90;99.90
17385;DHT22;8810;48.680;8.894;2022-10-03T00:36:05;8.90;99.90
17385;DHT22;8810;48.680;8.894;2022-10-03T00:38:49;8.80;99.90
17385;DHT22;8810;48.680;8.894;2022-10-03T00:41:44;8.80;99.90
17385;DHT22;8810;48.680;8.894;2022-10-03T00:44:37;8.80;99.90
17385;DHT22;8810;48.680;8.894;2022-10-03T00:47:35;8.80;99.90
17385;DHT22;8810;48.680;8.894;2022-10-03T00:50:20;8.80;99.90
17385;DHT22;8810;48.680;8.894;2022-10-03T00:53:01;8.80;99.90
17385;DHT22;8810;48.680;8.894;2022-10-03T00:55:45;8.70;99.90
17385;DHT22;8810;48.680;8.894;2022-10-03T00:58:29;8.70;99.90
17385;DHT22;8810;48.680;8.894;2022-10-03T01:01:05;8.60;99.90
17385;DHT22;8810;48.680;8.894;2022-10-03T01:03:56;8.60;99.90
17385;DHT22;8810;48.680;8.894;2022-10-03T01:06:29;8.60;99.90
17385;DHT22;8810;48.680;8.894;2022-10-03T01:09:19;8.50;99.90
17385;DHT22;8810;48.680;8.894;2022-10-03T01:12:16;8.50;99.90
17385;DHT22;8810;48.680;8.894;2022-10-03T01:15:06;8.40;99.90
17385;DHT22;8810;48.680;8.894;2022-10-03T01:17:41;8.40;99.90
17385;DHT22;8810;48.680;8.894;2022-10-03T01:20:24;8.30;99.90
17385;DHT22;8810;48.680;8.894;2022-10-03T01:26:17;8.30;99.90
17385;DHT22;8810;48.680;8.894;2022-10-03T01:28:50;8.30;99.90
17385;DHT22;8810;48.680;8.894;2022-10-03T01:31:43;8.30;99.90
17385;DHT22;8810;48.680;8.894;2022-10-03T01:34:18;8.30;99.90
17385;DHT22;8810;48.680;8.894;2022-10-03T01:36:55;8.30;99.90
17385;DHT22;8810;48.680;8.894;2022-10-03T01:39:30;8.20;99.90
17385;DHT22;8810;48.680;8.894;2022-10-03T01:42:00;8.20;99.90
17385;DHT22;8810;48.680;8.894;2022-10-03T01:44:39;8.20;99.90
17385;DHT22;8810;48.680;8.894;2022-10-03T01:47:23;8.20;99.90
17385;DHT22;8810;48.680;8.894;2022-10-03T01:49:57;8.10;99.90
17385;DHT22;8810;48.680;8.894;2022-10-03T01:52:32;8.10;99.90
17385;DHT22;8810;48.680;8.894;2022-10-03T01:55:07;8.00;99.90
17385;DHT22;8810;48.680;8.894;2022-10-03T01:57:40;8.00;99.90
17385;DHT22;8810;48.680;8.894;2022-10-03T02:00:12;8.00;99.90
17385;DHT22;8810;48.680;8.894;2022-10-03T02:02:44;7.90;99.90
17385;DHT22;8810;48.680;8.894;2022-10-03T02:05:18;7.90;99.90
17385;DHT22;8810;48.680;8.894;2022-10-03T02:07:53;7.90;99.90
17385;DHT22;8810;48.680;8.894;2022-10-03T02:10:31;7.90;99.90
17385;DHT22;8810;48.680;8.894;2022-10-03T02:13:06;7.90;99.90
17385;DHT22;8810;48.680;8.894;2022-10-03T02:15:51;7.90;99.90
17385;DHT22;8810;48.680;8.894;2022-10-03T02:18:28;7.90;99.90
17385;DHT22;8810;48.680;8.894;2022-10-03T02:21:08;7.90;99.90
17385;DHT22;8810;48.680;8.894;2022-10-03T02:23:40;7.90;99.90
17385;DHT22;8810;48.680;8.894;2022-10-03T02:36:07;8.00;99.90
17385;DHT22;8810;48.680;8.894;2022-10-03T02:39:17;8.00;99.90
17385;DHT22;8810;48.680;8.894;2022-10-03T02:42:37;7.90;99.90
17385;DHT22;8810;48.680;8.894;2022-10-03T02:45:42;7.90;99.90
17385;DHT22;8810;48.680;8.894;2022-10-03T02:48:37;7.90;99.90
17385;DHT22;8810;48.680;8.894;2022-10-03T02:51:42;7.80;99.90
17385;DHT22;8810;48.680;8.894;2022-10-03T03:00:16;7.70;99.90
17385;DHT22;8810;48.680;8.894;2022-10-03T03:06:21;7.60;99.90
17385;DHT22;8810;48.680;8.894;2022-10-03T03:09:19;7.60;99.90
17385;DHT22;8810;48.680;8.894;2022-10-03T03:12:08;7.50;99.90
17385;DHT22;8810;48.680;8.894;2022-10-03T03:15:01;7.50;99.90
17385;DHT22;8810;48.680;8.894;2022-10-03T03:17:38;7.60;99.90
17385;DHT22;8810;48.680;8.894;2022-10-03T03:20:31;7.60;99.90
17385;DHT22;8810;48.680;8.894;2022-10-03T03:23:22;7.50;99.90
17385;DHT22;8810;48.680;8.894;2022-10-03T03:26:11;7.60;99.90
17385;DHT22;8810;48.680;8.894;2022-10-03T03:28:48;7.60;99.90
17385;DHT22;8810;48.680;8.894;2022-10-03T03:31:24;7.50;99.90
17385;DHT22;8810;48.680;8.894;2022-10-03T03:34:01;7.50;99.90
17385;DHT22;8810;48.680;8.894;2022-10-03T03:36:35;7.50;99.90
17385;DHT22;8810;48.680;8.894;2022-10-03T03:42:15;7.40;99.90
17385;DHT22;8810;48.680;8.894;2022-10-03T03:45:01;7.40;99.90
17385;DHT22;8810;48.680;8.894;2022-10-03T03:47:49;7.40;99.90
17385;DHT22;8810;48.680;8.894;2022-10-03T03:50:38;7.40;99.90
17385;DHT22;8810;48.680;8.894;2022-10-03T03:53:39;7.30;99.90
17385;DHT22;8810;48.680;8.894;2022-10-03T03:56:32;7.40;99.90
17385;DHT22;8810;48.680;8.894;2022-10-03T03:59:12;7.30;99.90
17385;DHT22;8810;48.680;8.894;2022-10-03T04:01:57;7.20;99.90
17385;DHT22;8810;48.680;8.894;2022-10-03T04:04:47;7.30;99.90
17385;DHT22;8810;48.680;8.894;2022-10-03T04:07:28;7.20;99.90
17385;DHT22;8810;48.680;8.894;2022-10-03T04:10:22;7.20;99.90
17385;DHT22;8810;48.680;8.894;2022-10-03T04:16:26;7.10;99.90
17385;DHT22;8810;48.680;8.894;2022-10-03T04:19:23;7.10;99.90
17385;DHT22;8810;48.680;8.894;2022-10-03T04:22:13;7.10;99.90
17385;DHT22;8810;48.680;8.894;2022-10-03T04:25:11;7.10;99.90
17385;DHT22;8810;48.680;8.894;2022-10-03T04:30:50;7.10;99.90
17385;DHT22;8810;48.680;8.894;2022-10-03T04:33:29;7.20;99.90
17385;DHT22;8810;48.680;8.894;2022-10-03T04:36:25;7.20;99.90
17385;DHT22;8810;48.680;8.894;2022-10-03T04:39:05;7.20;99.90
17385;DHT22;8810;48.680;8.894;2022-10-03T04:41:41;7.20;99.90
17385;DHT22;8810;48.680;8.894;2022-10-03T04:44:24;7.10;99.90
17385;DHT22;8810;48.680;8.894;2022-10-03T04:46:55;7.10;99.90
17385;DHT22;8810;48.680;8.894;2022-10-03T04:49:29;7.10;99.90
17385;DHT22;8810;48.680;8.894;2022-10-03T04:52:01;7.10;99.90
17385;DHT22;8810;48.680;8.894;2022-10-03T04:54:39;7.00;99.90
17385;DHT22;8810;48.680;8.894;2022-10-03T04:57:18;7.00;99.90
17385;DHT22;8810;48.680;8.894;2022-10-03T04:59:50;7.00;99.90
17385;DHT22;8810;48.680;8.894;2022-10-03T05:02:32;7.10;99.90
17385;DHT22;8810;48.680;8.894;2022-10-03T05:05:33;6.90;99.90
17385;DHT22;8810;48.680;8.894;2022-10-03T05:08:15;7.10;99.90
17385;DHT22;8810;48.680;8.894;2022-10-03T05:10:53;7.20;99.90
17385;DHT22;8810;48.680;8.894;2022-10-03T05:13:31;7.20;99.90
17385;DHT22;8810;48.680;8.894;2022-10-03T05:16:06;7.30;99.90
17385;DHT22;8810;48.680;8.894;2022-10-03T05:18:40;7.30;99.90
17385;DHT22;8810;48.680;8.894;2022-10-03T05:21:13;7.40;99.90
17385;DHT22;8810;48.680;8.894;2022-10-03T05:23:49;7.30;99.90
17385;DHT22;8810;48.680;8.894;2022-10-03T05:26:24;7.40;99.90
17385;DHT22;8810;48.680;8.894;2022-10-03T05:29:02;7.30;99.90
17385;DHT22;8810;48.680;8.894;2022-10-03T05:31:42;7.40;99.90
17385;DHT22;8810;48.680;8.894;2022-10-03T05:34:22;7.50;99.90
17385;DHT22;8810;48.680;8.894;2022-10-03T05:37:06;7.50;99.90
17385;DHT22;8810;48.680;8.894;2022-10-03T05:39:43;7.50;99.90
17385;DHT22;8810;48.680;8.894;2022-10-03T05:42:34;7.60;99.90
17385;DHT22;8810;48.680;8.894;2022-10-03T05:45:04;7.60;99.90
17385;DHT22;8810;48.680;8.894;2022-10-03T05:47:48;7.60;99.90
17385;DHT22;8810;48.680;8.894;2022-10-03T05:50:32;7.70;99.90
17385;DHT22;8810;48.680;8.894;2022-10-03T05:53:12;7.70;99.90
17385;DHT22;8810;48.680;8.894;2022-10-03T05:55:50;7.70;99.90
17385;DHT22;8810;48.680;8.894;2022-10-03T05:58:47;7.80;99.90
17385;DHT22;8810;48.680;8.894;2022-10-03T06:01:43;7.80;99.90
17385;DHT22;8810;48.680;8.894;2022-10-03T06:04:56;7.80;99.90
17385;DHT22;8810;48.680;8.894;2022-10-03T06:07:29;7.90;99.90
17385;DHT22;8810;48.680;8.894;2022-10-03T06:13:14;8.10;99.90
17385;DHT22;8810;48.680;8.894;2022-10-03T06:15:56;8.10;99.90
17385;DHT22;8810;48.680;8.894;2022-10-03T06:28:25;8.40;99.90
17385;DHT22;8810;48.680;8.894;2022-10-03T06:34:13;8.50;99.90
17385;DHT22;8810;48.680;8.894;2022-10-03T06:36:55;8.50;99.90
17385;DHT22;8810;48.680;8.894;2022-10-03T06:43:24;8.50;99.90
17385;DHT22;8810;48.680;8.894;2022-10-03T06:52:25;8.60;99.90
17385;DHT22;8810;48.680;8.894;2022-10-03T06:58:29;8.80;99.90
17385;DHT22;8810;48.680;8.894;2022-10-03T07:01:17;8.80;99.90
17385;DHT22;8810;48.680;8.894;2022-10-03T07:04:21;8.90;99.90
17385;DHT22;8810;48.680;8.894;2022-10-03T07:07:11;8.90;99.90
17385;DHT22;8810;48.680;8.894;2022-10-03T07:10:14;9.00;99.90
17385;DHT22;8810;48.680;8.894;2022-10-03T07:16:18;9.10;99.90
17385;DHT22;8810;48.680;8.894;2022-10-03T07:25:14;9.20;99.90
17385;DHT22;8810;48.680;8.894;2022-10-03T07:28:21;9.20;99.90
17385;DHT22;8810;48.680;8.894;2022-10-03T07:31:00;9.30;99.90
17385;DHT22;8810;48.680;8.894;2022-10-03T07:36:31;9.40;99.90
17385;DHT22;8810;48.680;8.894;2022-10-03T07:40:00;9.50;99.90
17385;DHT22;8810;48.680;8.894;2022-10-03T07:45:43;9.70;99.90
17385;DHT22;8810;48.680;8.894;2022-10-03T07:48:47;9.70;99.90
17385;DHT22;8810;48.680;8.894;2022-10-03T07:51:22;9.80;99.90
17385;DHT22;8810;48.680;8.894;2022-10-03T08:05:53;10.30;99.90
17385;DHT22;8810;48.680;8.894;2022-10-03T08:08:49;10.30;99.90
17385;DHT22;8810;48.680;8.894;2022-10-03T08:11:41;10.30;99.90
17385;DHT22;8810;48.680;8.894;2022-10-03T08:14:24;10.30;99.90
17385;DHT22;8810;48.680;8.894;2022-10-03T08:20:36;10.40;99.90
17385;DHT22;8810;48.680;8.894;2022-10-03T08:23:30;10.40;99.90
17385;DHT22;8810;48.680;8.894;2022-10-03T08:26:11;10.50;99.90
17385;DHT22;8810;48.680;8.894;2022-10-03T08:32:05;10.60;99.90
17385;DHT22;8810;48.680;8.894;2022-10-03T08:35:16;10.70;99.90
17385;DHT22;8810;48.680;8.894;2022-10-03T08:38:21;10.80;99.90
17385;DHT22;8810;48.680;8.894;2022-10-03T08:50:51;11.20;99.90
17385;DHT22;8810;48.680;8.894;2022-10-03T08:54:00;11.30;99.90
17385;DHT22;8810;48.680;8.894;2022-10-03T09:02:57;11.30;99.90
17385;DHT22;8810;48.680;8.894;2022-10-03T09:05:47;11.40;99.90
17385;DHT22;8810;48.680;8.894;2022-10-03T09:08:46;11.40;99.90
17385;DHT22;8810;48.680;8.894;2022-10-03T09:11:46;11.40;99.90
17385;DHT22;8810;48.680;8.894;2022-10-03T09:14:41;11.40;99.90
17385;DHT22;8810;48.680;8.894;2022-10-03T09:17:54;11.50;99.90
17385;DHT22;8810;48.680;8.894;2022-10-03T09:20:50;11.50;99.90
17385;DHT22;8810;48.680;8.894;2022-10-03T09:23:54;11.50;99.90
17385;DHT22;8810;48.680;8.894;2022-10-03T09:29:45;11.50;99.90
17385;DHT22;8810;48.680;8.894;2022-10-03T09:38:57;11.50;99.90
17385;DHT22;8810;48.680;8.894;2022-10-03T09:41:51;11.50;99.90
17385;DHT22;8810;48.680;8.894;2022-10-03T09:45:01;11.50;99.90
17385;DHT22;8810;48.680;8.894;2022-10-03T09:47:50;11.50;99.90
17385;DHT22;8810;48.680;8.894;2022-10-03T09:50:55;11.60;99.90
17385;DHT22;8810;48.680;8.894;2022-10-03T09:53:44;11.60;99.90
17385;DHT22;8810;48.680;8.894;2022-10-03T09:56:48;11.80;99.90
17385;DHT22;8810;48.680;8.894;2022-10-03T09:59:34;11.80;99.90
17385;DHT22;8810;48.680;8.894;2022-10-03T10:02:24;11.90;99.90
17385;DHT22;8810;48.680;8.894;2022-10-03T10:05:23;12.00;99.90
17385;DHT22;8810;48.680;8.894;2022-10-03T10:08:08;12.10;99.90
17385;DHT22;8810;48.680;8.894;2022-10-03T10:11:10;12.10;99.90
17385;DHT22;8810;48.680;8.894;2022-10-03T10:29:11;12.40;99.90
17385;DHT22;8810;48.680;8.894;2022-10-03T10:50:26;14.70;99.90
17385;DHT22;8810;48.680;8.894;2022-10-03T10:56:54;15.50;99.90
17385;DHT22;8810;48.680;8.894;2022-10-03T11:06:45;15.40;99.90
17385;DHT22;8810;48.680;8.894;2022-10-03T11:09:44;15.20;99.90
17385;DHT22;8810;48.680;8.894;2022-10-03T11:13:08;15.00;99.90
17385;DHT22;8810;48.680;8.894;2022-10-03T11:16:14;14.90;99.90
17385;DHT22;8810;48.680;8.894;2022-10-03T11:19:25;15.40;99.90
17385;DHT22;8810;48.680;8.894;2022-10-03T11:22:33;15.90;99.90
17385;DHT22;8810;48.680;8.894;2022-10-03T11:25:29;16.10;99.90
17385;DHT22;8810;48.680;8.894;2022-10-03T11:28:37;16.00;99.90
17385;DHT22;8810;48.680;8.894;2022-10-03T11:31:39;15.80;99.90
17385;DHT22;8810;48.680;8.894;2022-10-03T11:37:38;15.30;99.90
17385;DHT22;8810;48.680;8.894;2022-10-03T11:40:34;15.10;99.90
17385;DHT22;8810;48.680;8.894;2022-10-03T11:43:45;14.90;99.90
17385;DHT22;8810;48.680;8.894;2022-10-03T11:46:21;14.80;99.90
17385;DHT22;8810;48.680;8.894;2022-10-03T11:48:54;14.60;99.90
17385;DHT22;8810;48.680;8.894;2022-10-03T11:51:35;14.40;99.90
17385;DHT22;8810;48.680;8.894;2022-10-03T11:54:14;14.60;99.90
17385;DHT22;8810;48.680;8.894;2022-10-03T11:56:45;14.60;99.90
17385;DHT22;8810;48.680;8.894;2022-10-03T11:59:40;14.70;99.90
17385;DHT22;8810;48.680;8.894;2022-10-03T12:02:15;14.70;99.90
17385;DHT22;8810;48.680;8.894;2022-10-03T12:04:51;14.80;99.90
17385;DHT22;8810;48.680;8.894;2022-10-03T12:07:39;14.90;99.90
17385;DHT22;8810;48.680;8.894;2022-10-03T12:10:44;15.00;99.90
17385;DHT22;8810;48.680;8.894;2022-10-03T12:13:15;15.20;99.90
17385;DHT22;8810;48.680;8.894;2022-10-03T12:15:46;15.00;99.90
17385;DHT22;8810;48.680;8.894;2022-10-03T12:18:22;15.00;99.90
17385;DHT22;8810;48.680;8.894;2022-10-03T12:21:08;15.00;99.90
17385;DHT22;8810;48.680;8.894;2022-10-03T12:23:55;15.10;99.90
17385;DHT22;8810;48.680;8.894;2022-10-03T12:26:40;15.10;99.90
17385;DHT22;8810;48.680;8.894;2022-10-03T12:29:10;15.20;99.90
17385;DHT22;8810;48.680;8.894;2022-10-03T12:31:41;15.20;99.90
17385;DHT22;8810;48.680;8.894;2022-10-03T12:34:25;15.10;99.90
17385;DHT22;8810;48.680;8.894;2022-10-03T12:37:08;15.10;99.90
17385;DHT22;8810;48.680;8.894;2022-10-03T12:39:42;15.10;99.90
17385;DHT22;8810;48.680;8.894;2022-10-03T12:42:23;15.10;99.90
17385;DHT22;8810;48.680;8.894;2022-10-03T12:44:56;15.10;99.90
17385;DHT22;8810;48.680;8.894;2022-10-03T12:47:31;15.10;99.90
17385;DHT22;8810;48.680;8.894;2022-10-03T12:50:07;15.10;99.90
17385;DHT22;8810;48.680;8.894;2022-10-03T12:52:41;15.20;99.90
17385;DHT22;8810;48.680;8.894;2022-10-03T12:55:22;15.50;99.90
17385;DHT22;8810;48.680;8.894;2022-10-03T12:57:56;15.80;99.90
17385;DHT22;8810;48.680;8.894;2022-10-03T13:00:30;16.10;99.90
17385;DHT22;8810;48.680;8.894;2022-10-03T13:03:19;16.40;99.90
17385;DHT22;8810;48.680;8.894;2022-10-03T13:09:01;16.60;99.90
17385;DHT22;8810;48.680;8.894;2022-10-03T13:11:41;16.70;99.90
17385;DHT22;8810;48.680;8.894;2022-10-03T13:14:24;16.80;99.90
17385;DHT22;8810;48.680;8.894;2022-10-03T13:17:02;16.60;99.90
17385;DHT22;8810;48.680;8.894;2022-10-03T13:19:40;16.60;99.90
17385;DHT22;8810;48.680;8.894;2022-10-03T13:22:24;16.60;99.90
17385;DHT22;8810;48.680;8.894;2022-10-03T13:25:01;16.60;99.90
17385;DHT22;8810;48.680;8.894;2022-10-03T13:27:39;16.60;99.90
17385;DHT22;8810;48.680;8.894;2022-10-03T13:30:17;16.60;99.90
17385;DHT22;8810;48.680;8.894;2022-10-03T13:32:49;16.60;99.90
17385;DHT22;8810;48.680;8.894;2022-10-03T13:35:21;16.50;99.90
17385;DHT22;8810;48.680;8.894;2022-10-03T13:38:39;16.50;99.90
17385;DHT22;8810;48.680;8.894;2022-10-03T13:41:18;16.30;99.90
17385;DHT22;8810;48.680;8.894;2022-10-03T13:43:53;16.30;99.90
17385;DHT22;8810;48.680;8.894;2022-10-03T13:46:28;16.30;99.90
17385;DHT22;8810;48.680;8.894;2022-10-03T13:48:59;16.40;99.90
17385;DHT22;8810;48.680;8.894;2022-10-03T13:51:33;16.60;99.90
17385;DHT22;8810;48.680;8.894;2022-10-03T13:54:07;16.90;99.90
17385;DHT22;8810;48.680;8.894;2022-10-03T13:56:46;17.30;99.90
17385;DHT22;8810;48.680;8.894;2022-10-03T13:59:39;17.60;99.90
17385;DHT22;8810;48.680;8.894;2022-10-03T14:05:37;18.10;99.90
17385;DHT22;8810;48.680;8.894;2022-10-03T14:08:11;18.40;99.90
17385;DHT22;8810;48.680;8.894;2022-10-03T14:11:19;18.60;99.90
17385;DHT22;8810;48.680;8.894;2022-10-03T14:14:02;18.90;99.90
17385;DHT22;8810;48.680;8.894;2022-10-03T14:16:34;19.10;99.90
17385;DHT22;8810;48.680;8.894;2022-10-03T14:19:10;19.20;99.90
17385;DHT22;8810;48.680;8.894;2022-10-03T14:22:05;19.40;99.90
17385;DHT22;8810;48.680;8.894;2022-10-03T14:24:41;19.60;99.90
17385;DHT22;8810;48.680;8.894;2022-10-03T14:27:40;19.70;99.90
17385;DHT22;8810;48.680;8.894;2022-10-03T14:30:11;19.70;99.90
17385;DHT22;8810;48.680;8.894;2022-10-03T14:32:49;19.70;99.90
17385;DHT22;8810;48.680;8.894;2022-10-03T14:35:37;19.80;99.90
17385;DHT22;8810;48.680;8.894;2022-10-03T14:38:29;19.80;99.90
17385;DHT22;8810;48.680;8.894;2022-10-03T14:41:17;19.80;99.90
17385;DHT22;8810;48.680;8.894;2022-10-03T14:43:48;19.80;99.90
17385;DHT22;8810;48.680;8.894;2022-10-03T14:46:18;19.60;99.90
17385;DHT22;8810;48.680;8.894;2022-10-03T14:48:49;19.50;99.90
17385;DHT22;8810;48.680;8.894;2022-10-03T14:51:21;19.50;99.90
17385;DHT22;8810;48.680;8.894;2022-10-03T14:53:52;19.30;99.90
17385;DHT22;8810;48.680;8.894;2022-10-03T14:56:20;19.10;99.90
17385;DHT22;8810;48.680;8.894;2022-10-03T14:58:51;18.80;99.90
17385;DHT22;8810;48.680;8.894;2022-10-03T15:01:20;18.70;99.90
17385;DHT22;8810;48.680;8.894;2022-10-03T15:03:57;18.60;99.90
17385;DHT22;8810;48.680;8.894;2022-10-03T15:06:49;18.50;99.90
17385;DHT22;8810;48.680;8.894;2022-10-03T15:09:24;18.50;99.90
17385;DHT22;8810;48.680;8.894;2022-10-03T15:11:57;18.40;99.90
17385;DHT22;8810;48.680;8.894;2022-10-03T15:14:27;18.40;99.90
17385;DHT22;8810;48.680;8.894;2022-10-03T15:16:57;18.30;99.90
17385;DHT22;8810;48.680;8.894;2022-10-03T15:19:31;18.20;99.90
17385;DHT22;8810;48.680;8.894;2022-10-03T15:22:06;18.10;99.90
17385;DHT22;8810;48.680;8.894;2022-10-03T15:24:39;17.90;99.90
17385;DHT22;8810;48.680;8.894;2022-10-03T15:27:12;17.80;99.90
17385;DHT22;8810;48.680;8.894;2022-10-03T15:29:45;17.70;99.90
17385;DHT22;8810;48.680;8.894;2022-10-03T15:32:20;17.60;99.90
17385;DHT22;8810;48.680;8.894;2022-10-03T15:34:53;17.50;99.90
17385;DHT22;8810;48.680;8.894;2022-10-03T15:37:24;17.40;99.90
17385;DHT22;8810;48.680;8.894;2022-10-03T15:39:59;17.20;99.90
17385;DHT22;8810;48.680;8.894;2022-10-03T15:42:29;17.10;99.90
17385;DHT22;8810;48.680;8.894;2022-10-03T15:44:59;17.00;99.90
17385;DHT22;8810;48.680;8.894;2022-10-03T15:47:30;16.90;99.90
17385;DHT22;8810;48.680;8.894;2022-10-03T15:50:02;16.90;99.90
17385;DHT22;8810;48.680;8.894;2022-10-03T15:52:37;16.90;99.90
17385;DHT22;8810;48.680;8.894;2022-10-03T15:55:10;16.80;99.90
17385;DHT22;8810;48.680;8.894;2022-10-03T15:57:43;16.80;99.90
17385;DHT22;8810;48.680;8.894;2022-10-03T16:00:20;16.70;99.90
17385;DHT22;8810;48.680;8.894;2022-10-03T16:02:50;16.70;99.90
17385;DHT22;8810;48.680;8.894;2022-10-03T16:05:21;16.60;99.90
17385;DHT22;8810;48.680;8.894;2022-10-03T16:07:56;16.50;99.90
17385;DHT22;8810;48.680;8.894;2022-10-03T16:10:27;15.60;99.90
17385;DHT22;8810;48.680;8.894;2022-10-03T16:12:58;16.30;99.90
17385;DHT22;8810;48.680;8.894;2022-10-03T16:15:49;16.20;99.90
17385;DHT22;8810;48.680;8.894;2022-10-03T16:18:43;16.20;99.90
17385;DHT22;8810;48.680;8.894;2022-10-03T16:21:13;16.00;99.90
17385;DHT22;8810;48.680;8.894;2022-10-03T16:23:43;15.90;99.90
17385;DHT22;8810;48.680;8.894;2022-10-03T16:26:17;15.80;99.90
17385;DHT22;8810;48.680;8.894;2022-10-03T16:28:50;15.70;99.90
17385;DHT22;8810;48.680;8.894;2022-10-03T16:31:20;15.50;99.90
17385;DHT22;8810;48.680;8.894;2022-10-03T16:33:50;15.40;99.90
17385;DHT22;8810;48.680;8.894;2022-10-03T16:36:20;15.30;99.90
17385;DHT22;8810;48.680;8.894;2022-10-03T16:38:54;15.10;99.90
17385;DHT22;8810;48.680;8.894;2022-10-03T16:41:24;14.90;99.90
17385;DHT22;8810;48.680;8.894;2022-10-03T16:43:57;14.80;99.90
17385;DHT22;8810;48.680;8.894;2022-10-03T16:46:25;14.50;99.90
17385;DHT22;8810;48.680;8.894;2022-10-03T16:48:54;14.40;99.90
17385;DHT22;8810;48.680;8.894;2022-10-03T16:51:41;14.20;99.90
17385;DHT22;8810;48.680;8.894;2022-10-03T16:54:13;14.10;99.90
17385;DHT22;8810;48.680;8.894;2022-10-03T16:56:44;13.90;99.90
17385;DHT22;8810;48.680;8.894;2022-10-03T16:59:16;13.80;99.90
17385;DHT22;8810;48.680;8.894;2022-10-03T17:01:48;13.70;99.90
17385;DHT22;8810;48.680;8.894;2022-10-03T17:04:20;13.50;99.90
17385;DHT22;8810;48.680;8.894;2022-10-03T17:06:49;13.50;99.90
17385;DHT22;8810;48.680;8.894;2022-10-03T17:09:25;13.40;99.90
17385;DHT22;8810;48.680;8.894;2022-10-03T17:11:55;13.20;99.90
17385;DHT22;8810;48.680;8.894;2022-10-03T17:14:23;13.10;99.90
17385;DHT22;8810;48.680;8.894;2022-10-03T17:16:57;13.00;99.90
17385;DHT22;8810;48.680;8.894;2022-10-03T17:19:32;12.90;99.90
17385;DHT22;8810;48.680;8.894;2022-10-03T17:22:06;12.80;99.90
17385;DHT22;8810;48.680;8.894;2022-10-03T17:24:43;12.60;99.90
17385;DHT22;8810;48.680;8.894;2022-10-03T17:27:19;12.50;99.90
17385;DHT22;8810;48.680;8.894;2022-10-03T17:29:52;12.40;99.90
17385;DHT22;8810;48.680;8.894;2022-10-03T17:32:24;12.30;99.90
17385;DHT22;8810;48.680;8.894;2022-10-03T17:34:58;12.10;99.90
17385;DHT22;8810;48.680;8.894;2022-10-03T17:40:36;11.90;99.90
17385;DHT22;8810;48.680;8.894;2022-10-03T17:43:18;11.80;99.90
17385;DHT22;8810;48.680;8.894;2022-10-03T17:45:54;11.60;99.90
17385;DHT22;8810;48.680;8.894;2022-10-03T17:48:29;11.50;99.90
17385;DHT22;8810;48.680;8.894;2022-10-03T17:51:24;11.50;99.90
17385;DHT22;8810;48.680;8.894;2022-10-03T17:53:55;11.40;99.90
17385;DHT22;8810;48.680;8.894;2022-10-03T17:56:26;11.30;99.90
17385;DHT22;8810;48.680;8.894;2022-10-03T17:59:00;11.20;99.90
17385;DHT22;8810;48.680;8.894;2022-10-03T18:01:34;11.10;99.90
17385;DHT22;8810;48.680;8.894;2022-10-03T18:04:03;11.00;99.90
17385;DHT22;8810;48.680;8.894;2022-10-03T18:06:37;11.00;99.90
17385;DHT22;8810;48.680;8.894;2022-10-03T18:09:20;10.90;99.90
17385;DHT22;8810;48.680;8.894;2022-10-03T18:11:50;10.90;99.90
17385;DHT22;8810;48.680;8.894;2022-10-03T18:14:29;10.80;99.90
17385;DHT22;8810;48.680;8.894;2022-10-03T18:17:04;10.80;99.90
17385;DHT22;8810;48.680;8.894;2022-10-03T18:19:48;10.70;99.90
17385;DHT22;8810;48.680;8.894;2022-10-03T18:22:22;10.50;99.90
17385;DHT22;8810;48.680;8.894;2022-10-03T18:24:55;10.60;99.90
17385;DHT22;8810;48.680;8.894;2022-10-03T18:27:51;10.50;99.90
17385;DHT22;8810;48.680;8.894;2022-10-03T18:30:28;10.40;99.90
17385;DHT22;8810;48.680;8.894;2022-10-03T18:32:58;10.30;99.90
17385;DHT22;8810;48.680;8.894;2022-10-03T18:35:27;10.20;99.90
17385;DHT22;8810;48.680;8.894;2022-10-03T18:38:02;10.10;99.90
17385;DHT22;8810;48.680;8.894;2022-10-03T18:40:32;10.10;99.90
17385;DHT22;8810;48.680;8.894;2022-10-03T18:43:03;9.90;99.90
17385;DHT22;8810;48.680;8.894;2022-10-03T18:45:35;9.90;99.90
17385;DHT22;8810;48.680;8.894;2022-10-03T18:48:08;9.80;99.90
17385;DHT22;8810;48.680;8.894;2022-10-03T18:50:47;9.70;99.90
17385;DHT22;8810;48.680;8.894;2022-10-03T18:53:19;9.60;99.90
17385;DHT22;8810;48.680;8.894;2022-10-03T18:55:55;9.60;99.90
17385;DHT22;8810;48.680;8.894;2022-10-03T18:58:27;9.50;99.90
17385;DHT22;8810;48.680;8.894;2022-10-03T19:01:00;9.50;99.90
17385;DHT22;8810;48.680;8.894;2022-10-03T19:03:33;9.40;99.90
17385;DHT22;8810;48.680;8.894;2022-10-03T19:06:04;9.40;99.90
17385;DHT22;8810;48.680;8.894;2022-10-03T19:08:36;9.40;99.90
17385;DHT22;8810;48.680;8.894;2022-10-03T19:11:10;9.40;99.90
17385;DHT22;8810;48.680;8.894;2022-10-03T19:13:44;9.30;99.90
17385;DHT22;8810;48.680;8.894;2022-10-03T19:16:26;9.30;99.90
17385;DHT22;8810;48.680;8.894;2022-10-03T19:19:03;9.30;99.90
17385;DHT22;8810;48.680;8.894;2022-10-03T19:21:35;9.30;99.90
17385;DHT22;8810;48.680;8.894;2022-10-03T19:24:06;9.30;99.90
17385;DHT22;8810;48.680;8.894;2022-10-03T19:26:41;9.20;99.90
17385;DHT22;8810;48.680;8.894;2022-10-03T19:29:12;9.20;99.90
17385;DHT22;8810;48.680;8.894;2022-10-03T19:31:43;9.10;99.90
17385;DHT22;8810;48.680;8.894;2022-10-03T19:34:16;9.00;99.90
17385;DHT22;8810;48.680;8.894;2022-10-03T19:36:48;9.00;99.90
17385;DHT22;8810;48.680;8.894;2022-10-03T19:39:16;8.90;99.90
17385;DHT22;8810;48.680;8.894;2022-10-03T19:41:50;8.90;99.90
17385;DHT22;8810;48.680;8.894;2022-10-03T19:44:21;8.90;99.90
17385;DHT22;8810;48.680;8.894;2022-10-03T19:47:00;8.80;99.90
17385;DHT22;8810;48.680;8.894;2022-10-03T19:49:35;8.80;99.90
17385;DHT22;8810;48.680;8.894;2022-10-03T19:52:26;8.70;99.90
17385;DHT22;8810;48.680;8.894;2022-10-03T19:54:59;8.70;99.90
17385;DHT22;8810;48.680;8.894;2022-10-03T19:57:31;8.70;99.90
17385;DHT22;8810;48.680;8.894;2022-10-03T20:00:07;8.70;99.90
17385;DHT22;8810;48.680;8.894;2022-10-03T20:02:51;8.60;99.90
17385;DHT22;8810;48.680;8.894;2022-10-03T20:05:21;8.50;99.90
17385;DHT22;8810;48.680;8.894;2022-10-03T20:07:52;8.50;99.90
17385;DHT22;8810;48.680;8.894;2022-10-03T20:10:45;8.40;99.90
17385;DHT22;8810;48.680;8.894;2022-10-03T20:13:13;8.40;99.90
17385;DHT22;8810;48.680;8.894;2022-10-03T20:15:44;8.30;99.90
17385;DHT22;8810;48.680;8.894;2022-10-03T20:18:21;8.30;99.90
17385;DHT22;8810;48.680;8.894;2022-10-03T20:20:50;8.30;99.90